Terminal Aerodrome Forecast
Issued by NWS Jackson, KY

Home | Current Version | Previous Version | Text Only | Print | Product List | Glossary On
Versions: 1 2 3 4 5 6 7 8 9 10 11 12 13 14
000
FTUS43 KJKL 032320
TAFLOZ
TAF
KLOZ 032320Z 0400/0424 VRB05KT P6SM SCT100
     FM040600 00000KT P6SM SKC
     FM041500 23009KT P6SM SCT060=

USA.gov is the U.S. government's official web portal to all federal, state and local government web resources and services.